Tiempo atmosférico en la estación meteorológica de Binissalem, Illes Balears (105 m.)



Fecha
DESCASC
Temp. máxima en grados centígrados (hora)
DESCASC
Temp. mínima en grados centígrados (hora)
DESCASC
Temp. media en grados centígrados
DESCASC
Racha de viento máxima en m/sg (hora)
DESCASC
Velocidad máxima media en intervalos de 10 minutos(hora)
DESCASC
Precipitaciones diarias en mm
DESCASC
Precipitaciones de 00:00 a 06:00 en mm
DESCASC
Precipitaciones de 06:00 a 12:00 en mm
DESCASC
Precipitaciones de 12:00 a 18:00 en mm
DESCASC
Precipitaciones de 18:00 a 24:00 en mm
DESCASC
16-04-2019 22.4 (15:30) 8.7 (02:10) 15.5 9.44 (16:10) 5.56 (16:30) 0.4 0.2 0.2 0 0
15-04-2019 20.5 (13:30) 7.7 (07:30) 14.1 8.06 (14:30) 4.72 (16:10) 0 0 0 0 0
14-04-2019 24.6 (17:00) 9.1 (00:00) 16.9 9.72 (10:30) 7.5 (10:30) 0.2 0 0.2 0 0
13-04-2019 19.8 (15:40) 5.2 (00:00) 12.5 9.44 (19:30) 6.67 (16:30) 0 0 0 0 0
12-04-2019 18.5 (14:50) 8.9 (00:00) 13.7 10 (14:50) 6.94 (14:20) 0 0 0 0 0
11-04-2019 19.6 (16:00) 9.4 (00:00) 14.5 9.17 (13:00) 6.11 (13:00) 0 0 0 0 0
10-04-2019 18.1 (17:40) 8 (00:00) 13.1 10.28 (18:30) 6.11 (06:10) 15.2 0 15.2 0 0
09-04-2019 18.3 (12:50) 11 (00:00) 14.6 10.83 (14:10) 6.67 (14:30) 0.2 0 0.2 0 0
08-04-2019 20.2 (17:20) 4 (00:00) 12.1 11.11 (13:40) 7.5 (14:00) 0 0 0 0 0
07-04-2019 15.9 (15:20) 6.1 (00:00) 11 11.94 (13:00) 7.22 (14:20) 0.6 0 0.6 0 0
06-04-2019 15.9 (15:10) 7.3 (00:00) 11.6 11.67 (17:40) 7.78 (12:30) 7 7 0 0 0
05-04-2019 17.9 (13:50) 0.8 (00:00) 9.3 10 (17:50) 6.39 (14:30) 0.8 0 0 0.4 0.4
04-04-2019 16.1 (16:50) 6.4 (00:00) 11.3 11.39 (13:10) 7.22 (13:00) 0.6 0.6 0 0 0
03-04-2019 18.8 (13:30) 12.5 (00:00) 15.6 10 (14:30) 7.22 (14:30) 0 0 0 0 0
02-04-2019 19.1 (15:00) 4.5 (00:00) 11.8 8.89 (12:10) 5.83 (12:00) 0 0 0 0 0
01-04-2019 19.6 (16:20) 8.6 (00:00) 14.1 6.67 (16:20) 4.17 (13:40) 0 0 0 0 0
31-03-2019 18.8 (13:10) 9 (00:00) 13.9 8.89 (13:20) 5.83 (13:20) 1.6 0 0 0 1.6
30-03-2019 19.6 (15:30) 6.3 (00:00) 13 9.17 (10:40) 5 (16:30) 0 0 0 0 0
29-03-2019 18.4 (14:40) 1 (00:00) 9.7 8.61 (15:40) 5 (11:30) 0 0 0 0 0
28-03-2019 18.5 (14:50) 1.7 (00:00) 10.1 11.39 (13:00) 6.39 (12:40) 0 0 0 0 0
27-03-2019 -- (--) -- (--) -- -- (--) -- (--) -- 0 -- -- 0
26-03-2019 15.1 (11:00) 3.4 (00:00) 9.3 15.83 (14:20) 9.72 (15:50) 0 0 0 0 0
25-03-2019 20.7 (15:20) 3.2 (00:00) 12 10.28 (12:10) 6.39 (10:20) 0 0 0 0 0
24-03-2019 21.7 (13:30) 2.7 (00:00) 12.2 6.94 (15:10) 5 (15:10) 0 0 0 0 0
23-03-2019 21.5 (15:10) 6 (00:00) 13.8 6.39 (12:30) 3.61 (12:30) 0 0 0 0 0
22-03-2019 18.5 (13:50) 9.7 (00:00) 14.1 10.83 (10:40) 6.94 (12:20) 0 0 0 0 0
21-03-2019 15.6 (12:40) 8.1 (00:00) 11.9 13.61 (16:40) 8.61 (16:40) 0 0 0 0 0
20-03-2019 13.9 (12:40) 8 (00:00) 10.9 14.72 (13:20) 9.72 (12:50) 2.8 0 0 2.8 0
19-03-2019 12.3 (17:20) 4.2 (00:00) 8.3 9.17 (17:20) 5.83 (17:00) 7.2 0 7.2 0 0

Gráficas

Temp. máximas Temp. mínimas Temp. medias Precipitaciones Rachas de viento máximas Velocidades máximas media en intervalos de 10 minutos

Datos horarios

Fecha y hora oficial Temperatura (ºC) Velocidad del viento (km/h) Dirección del viento Racha (km/h) Dirección de racha Precipitación (mm) Presión (hPa) Tendencia (hPa) Humedad (%)
2019-04-17 23:00:00 13.1 8 Nordeste 15 Nordeste 0 -- -- 83
2019-04-17 22:00:00 13.4 5 Nordeste 13 Este 0 -- -- 81
2019-04-17 21:00:00 14.3 8 Este 20 Este 0 -- -- 76
2019-04-17 20:00:00 15.7 12 Este 25 Este 0 -- -- 70
2019-04-17 19:00:00 17.5 17 Este 27 Este 0 -- -- 65
2019-04-17 18:00:00 19.3 17 Este 25 Este 0 -- -- 58
2019-04-17 17:00:00 20.3 15 Sudeste 33 Sudeste 0 -- -- 52
2019-04-17 16:00:00 21.4 13 Este 27 Este 0 -- -- 49
2019-04-17 15:00:00 21.3 13 Este 25 Este 0 -- -- 50
2019-04-17 14:00:00 21.1 10 Este 22 Este 0 -- -- 53
2019-04-17 13:00:00 20.3 9 Este 20 Nordeste 0 -- -- 55
2019-04-17 12:00:00 19.1 9 Este 21 Este 0 -- -- 62
2019-04-17 11:00:00 17.3 8 Este 19 Este 0 -- -- 68
2019-04-17 10:00:00 16 6 Nordeste 16 Este 0 -- -- 75
2019-04-17 09:00:00 12.7 0 Calma 4 Nordeste 0 -- -- 91
2019-04-17 08:00:00 8 0 Calma 4 Norte 0 -- -- 93
2019-04-17 07:00:00 7.5 0 Calma 6 Norte 0 -- -- 90
2019-04-17 06:00:00 9.9 5 Norte 7 Norte 0 -- -- 91
2019-04-17 05:00:00 10.7 5 Norte 7 Noroeste 0 -- -- 92
2019-04-17 04:00:00 8.6 3 Noroeste 5 Oeste 0 -- -- 90
2019-04-17 03:00:00 8.8 3 Norte 5 Norte 0 -- -- 88
2019-04-17 02:00:00 9.3 0 Calma 4 Sur 0 -- -- 85
2019-04-17 01:00:00 10.8 4 Norte 9 Norte 0 -- -- 82
2019-04-17 00:00:00 11.6 5 Norte 12 Norte 0 -- -- 79
2019-04-16 23:00:00 12 5 Nordeste 9 Norte 0 -- -- 82
2019-04-16 22:00:00 12.8 6 Nordeste 10 Nordeste 0 -- -- 81
2019-04-16 21:00:00 14.1 7 Nordeste 20 Nordeste 0 -- -- 71
2019-04-16 20:00:00 16 11 Nordeste 26 Nordeste 0 -- -- 60
2019-04-16 19:00:00 17.3 14 Este 27 Nordeste 0 -- -- 65
2019-04-16 18:00:00 18.1 16 Nordeste 31 Este 0 -- -- 59
2019-04-16 17:00:00 19.1 18 Este 34 Este 0 -- -- 59
2019-04-16 16:00:00 21.2 15 Este 29 Este 0 -- -- 50
2019-04-16 15:00:00 22.1 14 Nordeste 24 Norte 0 -- -- 47
2019-04-16 14:00:00 21.7 10 Este 22 Este 0 -- -- 42
2019-04-16 13:00:00 20.7 6 Este 14 Sudoeste 0 -- -- 45
2019-04-16 12:00:00 19.3 5 Sudoeste 14 Sudoeste 0 -- -- 47
2019-04-16 11:00:00 17.8 5 Sur 12 Sudeste 0 -- -- 55
2019-04-16 10:00:00 15.6 3 Sudeste 7 Sudeste 0 -- -- 69
2019-04-16 09:00:00 12.1 3 Este 10 Sur 0 -- -- 92
2019-04-16 08:00:00 11.2 5 Norte 15 Noroeste 0.2 -- -- 91
2019-04-16 07:00:00 10.4 5 Sudoeste 12 Sur 0 -- -- 91
2019-04-16 06:00:00 9.9 8 Sur 13 Sur 0.2 -- -- 88
2019-04-16 05:00:00 9.5 3 Sudoeste 9 Nordeste 0 -- -- 82
2019-04-16 04:00:00 9.3 5 Noroeste 8 Norte 0 -- -- 78
2019-04-16 03:00:00 9.6 8 Norte 11 Noroeste 0 -- -- 77
2019-04-16 02:00:00 8.9 4 Norte 8 Norte 0 -- -- 77
2019-04-16 01:00:00 9.5 4 Norte 8 Noroeste 0 -- -- 72
2019-04-16 00:00:00 10.1 8 Norte 9 Norte 0 -- -- 75
2019-04-15 23:00:00 11.7 4 Norte 6 Nordeste 0 -- -- 67
2019-04-15 22:00:00 13.5 3 Este 11 Este 0 -- -- 54
2019-04-15 21:00:00 14.8 2 Sudeste 13 Sudeste 0 -- -- 48
2019-04-15 20:00:00 16.5 6 Este 18 Este 0 -- -- 39
2019-04-15 19:00:00 17.7 10 Este 20 Este 0 -- -- 39
2019-04-15 18:00:00 18.6 10 Sudeste 24 Sudeste 0 -- -- 36
2019-04-15 17:00:00 19.3 13 Sudeste 27 Sudeste 0 -- -- 37
2019-04-15 16:00:00 19.9 15 Sudeste 26 Sudeste 0 -- -- 38
2019-04-15 15:00:00 20.2 13 Sudeste 29 Sudeste 0 -- -- 39
2019-04-15 14:00:00 20.4 9 Sudeste 23 Sur 0 -- -- 40
2019-04-15 13:00:00 20.3 12 Este 22 Este 0 -- -- 41
2019-04-15 12:00:00 19.4 13 Sudeste 22 Este 0 -- -- 42
2019-04-15 11:00:00 18.3 10 Este 19 Este 0 -- -- 45
2019-04-15 10:00:00 17.3 9 Este 16 Este 0 -- -- 49
2019-04-15 09:00:00 14.2 4 Nordeste 8 Norte 0 -- -- 64
2019-04-15 08:00:00 8.5 5 Norte 6 Norte 0 -- -- 79
2019-04-15 07:00:00 8.2 3 Norte 6 Norte 0 -- -- 74
2019-04-15 06:00:00 8.7 4 Noroeste 7 Norte 0 -- -- 74
2019-04-15 05:00:00 9.5 4 Norte 8 Norte 0 -- -- 74
2019-04-15 04:00:00 10.4 5 Norte 11 Nordeste 0 -- -- 72
2019-04-15 03:00:00 11.7 6 Norte 12 Norte 0 -- -- 70
2019-04-15 02:00:00 12.1 6 Nordeste 11 Norte 0 -- -- 77
2019-04-15 01:00:00 12.3 8 Norte 12 Norte 0 -- -- 84
2019-04-15 00:00:00 12.6 6 Norte 10 Norte 0 -- -- 87
2019-04-14 23:00:00 13 0 Calma 7 Nordeste 0 -- -- 83
2019-04-14 22:00:00 14 2 Nordeste 11 Este 0 -- -- 79
2019-04-14 21:00:00 15.7 5 Este 12 Nordeste 0 -- -- 75
2019-04-14 20:00:00 17.3 10 Nordeste 24 Nordeste 0 -- -- 69
2019-04-14 19:00:00 21.3 11 Este 29 Este 0 -- -- 52
2019-04-14 18:00:00 24.4 13 Noroeste 29 Oeste 0 -- -- 32
2019-04-14 17:00:00 24.6 13 Noroeste 27 Noroeste 0 -- -- 32
2019-04-14 16:00:00 23.4 14 Noroeste 28 Noroeste 0 -- -- 28
2019-04-14 15:00:00 23.4 8 Noroeste 21 Sur 0 -- -- 26
2019-04-14 14:00:00 22.9 14 Sur 29 Sudoeste 0 -- -- 44
2019-04-14 13:00:00 22.1 16 Sudoeste 31 Sudoeste 0 -- -- 48
2019-04-14 12:00:00 19.7 20 Sudoeste 30 Sudoeste 0 -- -- 64
2019-04-14 11:00:00 17.2 22 Sudoeste 35 Sudoeste 0 -- -- 78
2019-04-14 10:00:00 15 19 Sudoeste 30 Sudoeste 0 -- -- 94
2019-04-14 09:00:00 12.5 12 Sudoeste 18 Sudoeste 0.2 -- -- 96
2019-04-14 08:00:00 9.9 8 Sudoeste 13 Sudoeste 0 -- -- 96
2019-04-14 07:00:00 10 9 Sudoeste 14 Sudoeste 0 -- -- 95
2019-04-14 06:00:00 9.9 7 Oeste 15 Sudoeste 0 -- -- 93
2019-04-14 05:00:00 10.6 4 Sudoeste 18 Oeste 0 -- -- 94
2019-04-14 04:00:00 10.7 13 Oeste 17 Oeste 0 -- -- 94
2019-04-14 03:00:00 10.8 12 Oeste 17 Oeste 0 -- -- 93
2019-04-14 02:00:00 10.8 10 Oeste 18 Oeste 0 -- -- 91
2019-04-14 01:00:00 11.4 12 Oeste 19 Oeste 0 -- -- 90
2019-04-14 00:00:00 11.3 9 Sudoeste 13 Oeste 0 -- -- 90
2019-04-13 23:00:00 12 9 Oeste 13 Oeste 0 -- -- 90
2019-04-13 22:00:00 12.7 7 Oeste 21 Sudoeste 0 -- -- 85
2019-04-13 21:00:00 14 14 Sudoeste 26 Sudoeste 0 -- -- 79
2019-04-13 20:00:00 15.5 18 Sudoeste 34 Sudoeste 0 -- -- 73
2019-04-13 19:00:00 17.6 17 Sudoeste 33 Sudoeste 0 -- -- 63
2019-04-13 18:00:00 19 22 Sudoeste 32 Sudoeste 0 -- -- 52
2019-04-13 17:00:00 19.5 22 Sudoeste 33 Sudoeste 0 -- -- 50
2019-04-13 16:00:00 19.5 20 Sudoeste 31 Sur 0 -- -- 54
2019-04-13 15:00:00 19.4 21 Sudoeste 31 Sudoeste 0 -- -- 55
2019-04-13 14:00:00 19.2 20 Sudoeste 31 Sudoeste 0 -- -- 55
2019-04-13 13:00:00 19.1 18 Sudoeste 26 Sudoeste 0 -- -- 52
2019-04-13 12:00:00 18.4 18 Sudoeste 25 Sudoeste 0 -- -- 44
2019-04-13 11:00:00 17.5 11 Sudoeste 19 Sudoeste 0 -- -- 50
2019-04-13 10:00:00 14.9 12 Sudoeste 16 Oeste 0 -- -- 76
2019-04-13 09:00:00 10.9 5 Sudoeste 10 Sudoeste 0 -- -- 95
2019-04-13 08:00:00 5.8 4 Oeste 6 Sudoeste 0 -- -- 94
2019-04-13 07:00:00 5.6 6 Sudoeste 9 Sudoeste 0 -- -- 93
2019-04-13 06:00:00 5.8 2 Sudoeste 7 Sudoeste 0 -- -- 93
2019-04-13 05:00:00 6.6 3 Sudoeste 7 Sudoeste 0 -- -- 93
2019-04-13 04:00:00 6.6 4 Oeste 6 Sudoeste 0 -- -- 92
2019-04-13 03:00:00 6.6 4 Sudoeste 5 Sudoeste 0 -- -- 91
2019-04-13 02:00:00 7.5 3 Noroeste 6 Noroeste 0 -- -- 90
2019-04-13 01:00:00 8.1 4 Noroeste 8 Noroeste 0 -- -- 89
2019-04-13 00:00:00 8.9 4 Noroeste 6 Norte 0 -- -- 87
2019-04-12 23:00:00 10 3 Norte 5 Este 0 -- -- 85
2019-04-12 22:00:00 11.2 0 Calma 9 Sudoeste 0 -- -- 79
2019-04-12 21:00:00 12.6 6 Sudoeste 14 Sudoeste 0 -- -- 75
2019-04-12 20:00:00 14.8 12 Sudoeste 27 Sudoeste 0 -- -- 64
2019-04-12 19:00:00 16.4 18 Sudoeste 32 Oeste 0 -- -- 57
2019-04-12 18:00:00 17.5 21 Sudoeste 33 Sudoeste 0 -- -- 53
2019-04-12 17:00:00 17.9 22 Sudoeste 36 Sudoeste 0 -- -- 54
2019-04-12 16:00:00 18.3 22 Sudoeste 33 Oeste 0 -- -- 53
2019-04-12 15:00:00 18.4 22 Sudoeste 36 Sudoeste 0 -- -- 52
2019-04-12 14:00:00 17.1 21 Sudoeste 31 Sudoeste 0 -- -- 53
2019-04-12 13:00:00 17.4 4 Norte 17 Este 0 -- -- 52
2019-04-12 12:00:00 18 6 Sudeste 19 Sudeste 0 -- -- 52
2019-04-12 11:00:00 17.4 8 Nordeste 19 Nordeste 0 -- -- 55
2019-04-12 10:00:00 14.6 10 Nordeste 19 Nordeste 0 -- -- 62
2019-04-12 09:00:00 12.5 0 Calma 7 Este 0 -- -- 83
2019-04-12 08:00:00 11.2 4 Sudoeste 9 Sudoeste 0 -- -- 85
2019-04-12 07:00:00 11.2 2 Sudoeste 14 Este 0 -- -- 83
2019-04-12 06:00:00 11.1 2 Noroeste 5 Sudoeste 0 -- -- 84
2019-04-12 05:00:00 11.4 4 Noroeste 7 Sur 0 -- -- 81
2019-04-12 04:00:00 11.9 5 Sur 9 Sudoeste 0 -- -- 73
2019-04-12 03:00:00 12.3 6 Oeste 12 Noroeste 0 -- -- 67
2019-04-12 02:00:00 12.4 10 Sudoeste 18 Sudoeste 0 -- -- 58
2019-04-12 01:00:00 12.6 9 Sudoeste 14 Sudoeste 0 -- -- 60
2019-04-12 00:00:00 13.1 2 Noroeste 10 Sudoeste 0 -- -- 64
2019-04-11 23:00:00 13.3 8 Sudoeste 14 Sur 0 -- -- 61
2019-04-11 22:00:00 14.2 2 Sudeste 10 Sudoeste 0 -- -- 60
2019-04-11 21:00:00 15.4 3 Oeste 14 Noroeste 0 -- -- 45
2019-04-11 20:00:00 16.6 8 Noroeste 18 Oeste 0 -- -- 37
2019-04-11 19:00:00 17.4 13 Noroeste 30 Noroeste 0 -- -- 35
2019-04-11 18:00:00 18 19 Noroeste 32 Noroeste 0 -- -- 36
2019-04-11 17:00:00 19 18 Norte 33 Noroeste 0 -- -- 37
2019-04-11 16:00:00 19.6 16 Noroeste 30 Oeste 0 -- -- 34
2019-04-11 15:00:00 18.9 21 Noroeste 29 Noroeste 0 -- -- 38
2019-04-11 14:00:00 19.1 17 Noroeste 31 Oeste 0 -- -- 40
2019-04-11 13:00:00 18.6 22 Sudoeste 33 Sudoeste 0 -- -- 45
2019-04-11 12:00:00 17.9 20 Sudoeste 30 Sudoeste 0 -- -- 52
2019-04-11 11:00:00 17.4 6 Sur 14 Sur 0 -- -- 56
2019-04-11 10:00:00 15.1 6 Sudoeste 12 Sudoeste 0 -- -- 68
2019-04-11 09:00:00 11 5 Oeste 8 Sudoeste 0 -- -- 83
2019-04-11 08:00:00 10.3 3 Sudeste 9 Sur 0 -- -- 80
2019-04-11 07:00:00 12.2 3 Sudoeste 14 Oeste 0 -- -- 70
2019-04-11 06:00:00 11.7 8 Oeste 14 Noroeste 0 -- -- 71
2019-04-11 05:00:00 9.7 5 Sur 11 Sudoeste 0 -- -- 83
2019-04-11 04:00:00 9.4 6 Oeste 10 Oeste 0 -- -- 81
2019-04-11 03:00:00 10.1 7 Oeste 9 Sudoeste 0 -- -- 83
2019-04-11 02:00:00 10.1 5 Oeste 9 Noroeste 0 -- -- 89
2019-04-11 01:00:00 10.4 0 Calma 6 Sur 0 -- -- 88
2019-04-11 00:00:00 10.6 4 Sudoeste 6 Sur 0 -- -- 88
2019-04-10 23:00:00 10.6 0 Calma 6 Noroeste 0 -- -- 85
2019-04-10 22:00:00 11.6 3 Noroeste 6 Noroeste 0 -- -- 81
2019-04-10 21:00:00 13.3 3 Nordeste 12 Sudeste 0 -- -- 71
2019-04-10 20:00:00 15.1 9 Sudeste 19 Sudeste 0 -- -- 62
2019-04-10 19:00:00 16.1 14 Sudeste 37 Sudeste 0 -- -- 59
2019-04-10 18:00:00 17.6 14 Noroeste 24 Oeste 0 -- -- 48
2019-04-10 17:00:00 17.6 15 Noroeste 26 Noroeste 0 -- -- 49
2019-04-10 16:00:00 17.2 18 Noroeste 27 Noroeste 0 -- -- 54
2019-04-10 15:00:00 16.2 13 Noroeste 21 Noroeste 0 -- -- 55
2019-04-10 14:00:00 15.1 15 Noroeste 30 Oeste 0 -- -- 60
2019-04-10 13:00:00 15.4 15 Noroeste 26 Sudoeste 0 -- -- 62
2019-04-10 12:00:00 14.9 15 Oeste 25 Oeste 0 -- -- 63
2019-04-10 11:00:00 13.8 16 Noroeste 24 Oeste 0 -- -- 73
2019-04-10 10:00:00 10.1 5 Oeste 16 Oeste 0.8 -- -- 92
2019-04-10 09:00:00 8.9 4 Sur 22 Noroeste 4.4 -- -- 93
2019-04-10 08:00:00 8.9 6 Oeste 22 Noroeste 9.2 -- -- 90
2019-04-10 07:00:00 10.6 9 Noroeste 32 Noroeste 0.8 -- -- 83
2019-04-10 06:00:00 12.6 12 Noroeste 32 Noroeste 0 -- -- 69
2019-04-10 05:00:00 11.8 10 Sudoeste 13 Sudoeste 0 -- -- 78
2019-04-10 04:00:00 12.2 9 Sudoeste 19 Sudoeste 0 -- -- 75
2019-04-10 03:00:00 12.6 5 Oeste 23 Oeste 0 -- -- 71
2019-04-10 02:00:00 12.5 12 Oeste 21 Oeste 0 -- -- 71
2019-04-10 01:00:00 13 15 Sudoeste 28 Sudoeste 0 -- -- 69
2019-04-10 00:00:00 13.6 19 Oeste 27 Oeste 0 -- -- 67
2019-04-09 23:00:00 12.6 10 Oeste 17 Sudoeste 0 -- -- 79
2019-04-09 22:00:00 13.2 10 Sudoeste 28 Sudoeste 0 -- -- 70
2019-04-09 21:00:00 13.4 14 Sudoeste 26 Sudoeste 0 -- -- 59
2019-04-09 20:00:00 15.7 14 Sudoeste 27 Sudoeste 0 -- -- 47
2019-04-09 19:00:00 17.4 20 Sudoeste 30 Oeste 0 -- -- 45
2019-04-09 18:00:00 18 16 Oeste 31 Oeste 0 -- -- 45
2019-04-09 17:00:00 18.1 19 Oeste 32 Oeste 0 -- -- 47
2019-04-09 16:00:00 17.4 20 Noroeste 33 Noroeste 0 -- -- 49
2019-04-09 15:00:00 18 22 Noroeste 39 Noroeste 0 -- -- 51
2019-04-09 14:00:00 17.2 19 Noroeste 28 Noroeste 0 -- -- 57
2019-04-09 13:00:00 17.7 21 Noroeste 32 Noroeste 0 -- -- 56
2019-04-09 12:00:00 17.5 15 Noroeste 29 Noroeste 0 -- -- 60
2019-04-09 11:00:00 17.4 15 Noroeste 22 Noroeste 0 -- -- 55
2019-04-09 10:00:00 14.9 9 Norte 31 Sudoeste 0.2 -- -- 77
2019-04-09 09:00:00 14.3 17 Sudoeste 27 Sudoeste 0 -- -- 93
2019-04-09 08:00:00 12.3 10 Sudoeste 21 Sudoeste 0 -- -- 97
2019-04-09 07:00:00 12.7 9 Oeste 21 Sudoeste 0 -- -- 96
2019-04-09 06:00:00 12.9 11 Sudoeste 21 Sudoeste 0 -- -- 96
2019-04-09 05:00:00 11.8 2 Oeste 11 Sudoeste 0 -- -- 94
2019-04-09 04:00:00 11.7 4 Sudoeste 10 Oeste 0 -- -- 93
2019-04-09 03:00:00 11.4 7 Oeste 11 Oeste 0 -- -- 92
2019-04-09 02:00:00 11.6 2 Oeste 8 Oeste 0 -- -- 90
2019-04-09 01:00:00 12 8 Oeste 12 Oeste 0 -- -- 88
2019-04-09 00:00:00 12.2 4 Sudoeste 9 Sur 0 -- -- 87
2019-04-08 23:00:00 12.6 7 Sudoeste 12 Oeste 0 -- -- 83
2019-04-08 22:00:00 13.1 2 Oeste 19 Sur 0 -- -- 83
2019-04-08 21:00:00 14.5 16 Sur 22 Sur 0 -- -- 78
2019-04-08 20:00:00 17.1 9 Sudoeste 21 Oeste 0 -- -- 61
2019-04-08 19:00:00 19.1 11 Oeste 29 Sudoeste 0 -- -- 48
2019-04-08 18:00:00 19.9 18 Oeste 30 Sudoeste 0 -- -- 46
2019-04-08 17:00:00 20 19 Sudoeste 32 Sudoeste 0 -- -- 45
2019-04-08 16:00:00 18.5 22 Sudoeste 36 Oeste 0 -- -- 58
2019-04-08 15:00:00 19.3 24 Oeste 40 Sudoeste 0 -- -- 55
2019-04-08 14:00:00 17.5 27 Sudoeste 40 Sudoeste 0 -- -- 59
2019-04-08 13:00:00 17.3 21 Sudoeste 37 Sudoeste 0 -- -- 62
2019-04-08 12:00:00 17.6 18 Sudoeste 29 Sudoeste 0 -- -- 63
2019-04-08 11:00:00 16.1 16 Sudoeste 25 Oeste 0 -- -- 72
2019-04-08 10:00:00 14.3 15 Sudoeste 22 Oeste 0 -- -- 88
2019-04-08 09:00:00 10 0 Calma 7 Oeste 0 -- -- 92
2019-04-08 08:00:00 5.3 4 Oeste 6 Sudoeste 0 -- -- 91
2019-04-08 07:00:00 4.3 0 Calma 6 Sudoeste 0 -- -- 89
2019-04-08 06:00:00 4.3 3 Oeste 8 Noroeste 0 -- -- 87
2019-04-08 05:00:00 5.1 7 Oeste 9 Noroeste 0 -- -- 86
2019-04-08 04:00:00 5 7 Oeste 10 Oeste 0 -- -- 88
2019-04-08 03:00:00 4.9 3 Sudoeste 8 Sudoeste 0 -- -- 87
2019-04-08 02:00:00 5.8 8 Sudoeste 9 Sudoeste 0 -- -- 86
2019-04-08 01:00:00 6.7 4 Sudoeste 6 Sudoeste 0 -- -- 83
2019-04-08 00:00:00 7.9 0 Calma 10 Sudoeste 0 -- -- 83
2019-04-07 23:00:00 9.2 8 Sur 12 Oeste 0 -- -- 77
2019-04-07 22:00:00 11 10 Oeste 17 Oeste 0 -- -- 71
2019-04-07 21:00:00 11.9 11 Oeste 15 Oeste 0 -- -- 66
2019-04-07 20:00:00 13.3 4 Noroeste 12 Sudoeste 0 -- -- 58
2019-04-07 19:00:00 14.5 3 Noroeste 22 Noroeste 0 -- -- 54
2019-04-07 18:00:00 15.3 14 Noroeste 30 Noroeste 0 -- -- 51
2019-04-07 17:00:00 15 17 Noroeste 30 Noroeste 0 -- -- 50
2019-04-07 16:00:00 15.7 18 Noroeste 37 Oeste 0 -- -- 52
2019-04-07 15:00:00 14.8 18 Noroeste 43 Noroeste 0 -- -- 53
2019-04-07 14:00:00 15 23 Noroeste 38 Noroeste 0 -- -- 54
2019-04-07 13:00:00 14.8 24 Noroeste 43 Noroeste 0 -- -- 53
2019-04-07 12:00:00 14.3 15 Noroeste 31 Oeste 0 -- -- 54
2019-04-07 11:00:00 14.3 18 Noroeste 34 Oeste 0 -- -- 57
2019-04-07 10:00:00 12.6 15 Noroeste 34 Noroeste 0 -- -- 64
2019-04-07 09:00:00 9.7 8 Oeste 15 Sudoeste 0 -- -- 85
2019-04-07 08:00:00 8.9 5 Sur 29 Noroeste 0.6 -- -- 83
2019-04-07 07:00:00 8.1 3 Oeste 15 Sudoeste 0 -- -- 85
2019-04-07 06:00:00 8.5 11 Sudoeste 17 Sudoeste 0 -- -- 84
2019-04-07 05:00:00 8.5 13 Sudoeste 16 Sudoeste 0 -- -- 88
2019-04-07 04:00:00 6.2 6 Sudoeste 8 Norte 0 -- -- 90
2019-04-07 03:00:00 6.4 6 Sudoeste 10 Sur 0 -- -- 88
2019-04-07 02:00:00 7.4 7 Sudoeste 12 Sudoeste 0 -- -- 85
2019-04-07 01:00:00 7.8 9 Sudoeste 13 Sudoeste 0 -- -- 87
2019-04-07 00:00:00 7.7 6 Sur 9 Sudoeste 0 -- -- 85
2019-04-06 23:00:00 8.5 6 Sudoeste 7 Sudoeste 0 -- -- 82
2019-04-06 22:00:00 9.8 6 Sur 15 Sudoeste 0 -- -- 77
2019-04-06 21:00:00 11.8 8 Sudoeste 25 Sudoeste 0 -- -- 67
2019-04-06 20:00:00 13.5 18 Sudoeste 36 Sudoeste 0 -- -- 61
2019-04-06 19:00:00 13.8 22 Oeste 39 Sudoeste 0 -- -- 59
2019-04-06 18:00:00 13.9 20 Oeste 42 Oeste 0 -- -- 55
2019-04-06 17:00:00 14.7 24 Oeste 40 Oeste 0 -- -- 51
2019-04-06 16:00:00 14.6 27 Oeste 40 Oeste 0 -- -- 52
2019-04-06 15:00:00 15.7 25 Sudoeste 39 Oeste 0 -- -- 47
2019-04-06 14:00:00 15 20 Oeste 37 Sudoeste 0 -- -- 58
2019-04-06 13:00:00 14.4 25 Oeste 41 Sudoeste 0 -- -- 56
2019-04-06 12:00:00 14 24 Oeste 35 Oeste 0 -- -- 57
2019-04-06 11:00:00 13 22 Sudoeste 40 Sudoeste 0 -- -- 62
2019-04-06 10:00:00 12.2 17 Oeste 27 Oeste 0 -- -- 73
2019-04-06 09:00:00 9.9 13 Oeste 30 Oeste 0 -- -- 86
2019-04-06 08:00:00 8.2 12 Oeste 21 Oeste 0 -- -- 89
2019-04-06 07:00:00 8.1 14 Oeste 22 Oeste 0 -- -- 91
2019-04-06 06:00:00 7.5 4 Oeste 13 Sudoeste 0 -- -- 93
2019-04-06 05:00:00 8.1 10 Sudoeste 18 Sudoeste 0.2 -- -- 93
2019-04-06 04:00:00 9.3 9 Sur 35 Sudoeste 5.2 -- -- 93
2019-04-06 03:00:00 10.3 5 Sur 11 Sudoeste 1.6 -- -- 92
2019-04-06 02:00:00 10.2 5 Sudoeste 16 Sudoeste 0 -- -- 91
2019-04-06 01:00:00 10.4 7 Sudoeste 13 Sudoeste 0 -- -- 91
2019-04-06 00:00:00 11.5 7 Sudoeste 14 Sudoeste 0 -- -- 89
2019-04-05 23:00:00 12.9 13 Sudoeste 31 Sudoeste 0.4 -- -- 87
2019-04-05 22:00:00 13.2 12 Sudoeste 32 Oeste 0 -- -- 85
2019-04-05 21:00:00 13.7 20 Sudoeste 31 Sudoeste 0 -- -- 78
2019-04-05 20:00:00 14 19 Sur 30 Sudoeste 0 -- -- 77
2019-04-05 19:00:00 14.1 22 Sudoeste 33 Sudoeste 0 -- -- 76
2019-04-05 18:00:00 13.9 19 Sudoeste 36 Sur 0.4 -- -- 83
2019-04-05 17:00:00 15.1 21 Sur 34 Sur 0 -- -- 67
2019-04-05 16:00:00 15.5 19 Sur 31 Sur 0 -- -- 61
2019-04-05 15:00:00 16 21 Sudoeste 35 Sudoeste 0 -- -- 58
2019-04-05 14:00:00 17.9 18 Sudoeste 32 Sudoeste 0 -- -- 48
2019-04-05 13:00:00 17.2 21 Sudoeste 32 Oeste 0 -- -- 46
2019-04-05 12:00:00 16.2 19 Sudoeste 32 Oeste 0 -- -- 43
2019-04-05 11:00:00 14.7 18 Oeste 26 Oeste 0 -- -- 52
2019-04-05 10:00:00 12.8 12 Oeste 18 Oeste 0 -- -- 60
2019-04-05 09:00:00 6.6 3 Sur 5 Sur 0 -- -- 81
2019-04-05 08:00:00 1.2 0 Calma 8 Oeste 0 -- -- 89
2019-04-05 07:00:00 1.3 6 Sudoeste 10 Sudeste 0 -- -- 88
2019-04-05 06:00:00 3.2 4 Sudoeste 15 Sudoeste 0 -- -- 87
2019-04-05 05:00:00 2.4 8 Sudoeste 12 Sudoeste 0 -- -- 88
2019-04-05 04:00:00 2.7 8 Sudoeste 10 Sudoeste 0 -- -- 87
2019-04-05 03:00:00 3.7 5 Sudoeste 9 Noroeste 0 -- -- 84
2019-04-05 02:00:00 4.9 7 Noroeste 10 Norte 0 -- -- 83
2019-04-05 01:00:00 5.7 3 Noroeste 12 Noroeste 0 -- -- 76
2019-04-05 00:00:00 6.4 6 Norte 10 Noroeste 0 -- -- 74
2019-04-04 23:00:00 7.1 6 Noroeste 10 Noroeste 0 -- -- 71
2019-04-04 22:00:00 9.3 3 Norte 8 Este 0 -- -- 67
2019-04-04 21:00:00 11.1 8 Sudeste 13 Sudeste 0 -- -- 60
2019-04-04 20:00:00 14 6 Oeste 17 Oeste 0 -- -- 26
2019-04-04 19:00:00 15.6 11 Oeste 20 Oeste 0 -- -- 21
2019-04-04 18:00:00 15.6 12 Noroeste 23 Oeste 0 -- -- 28
2019-04-04 17:00:00 15.8 14 Oeste 28 Oeste 0 -- -- 26
2019-04-04 16:00:00 16 12 Oeste 28 Noroeste 0 -- -- 32
2019-04-04 15:00:00 14.9 13 Noroeste 36 Noroeste 0 -- -- 36
2019-04-04 14:00:00 13.8 20 Oeste 41 Noroeste 0 -- -- 39
2019-04-04 13:00:00 12.9 26 Noroeste 41 Noroeste 0 -- -- 40
2019-04-04 12:00:00 13.1 23 Noroeste 37 Noroeste 0 -- -- 46
2019-04-04 11:00:00 12.4 13 Noroeste 27 Oeste 0 -- -- 52
2019-04-04 10:00:00 11.1 19 Noroeste 27 Noroeste 0 -- -- 62
2019-04-04 09:00:00 10.1 5 Oeste 12 Sudoeste 0 -- -- 76
2019-04-04 08:00:00 9.1 8 Sudoeste 13 Sur 0 -- -- 84
2019-04-04 07:00:00 9 6 Sudoeste 11 Sudoeste 0 -- -- 86
2019-04-04 06:00:00 9.1 7 Sudoeste 10 Sudoeste 0 -- -- 86
2019-04-04 05:00:00 9.4 4 Sudoeste 10 Sudeste 0 -- -- 84
2019-04-04 04:00:00 10 6 Sudeste 15 Este 0 -- -- 85
2019-04-04 03:00:00 10.4 8 Este 14 Este 0 -- -- 85
2019-04-04 02:00:00 10.6 8 Este 23 Nordeste 0 -- -- 86
2019-04-04 01:00:00 11.5 12 Nordeste 28 Nordeste 0.6 -- -- 83
2019-04-04 00:00:00 13.2 4 Este 21 Norte 0 -- -- 73
2019-04-03 23:00:00 13.8 13 Noroeste 24 Noroeste 0 -- -- 82
2019-04-03 22:00:00 13.4 11 Sudoeste 15 Oeste 0 -- -- 88
2019-04-03 21:00:00 13.9 10 Oeste 18 Sudoeste 0 -- -- 86
2019-04-03 20:00:00 15 11 Sudoeste 21 Sur 0 -- -- 80
2019-04-03 19:00:00 16.2 14 Sudoeste 23 Sur 0 -- -- 75
2019-04-03 18:00:00 16.6 14 Sudoeste 27 Sudoeste 0 -- -- 74
2019-04-03 17:00:00 17.4 19 Sudoeste 31 Oeste 0 -- -- 72
2019-04-03 16:00:00 18.4 22 Sudoeste 34 Sudoeste 0 -- -- 68
2019-04-03 15:00:00 18.6 22 Sudoeste 36 Sudoeste 0 -- -- 67
2019-04-03 14:00:00 18.5 23 Sudoeste 35 Sudoeste 0 -- -- 66
2019-04-03 13:00:00 17.8 16 Sudoeste 30 Sudoeste 0 -- -- 69
2019-04-03 12:00:00 16.6 18 Sudoeste 27 Sudoeste 0 -- -- 72
2019-04-03 11:00:00 15.3 17 Sudoeste 27 Sudoeste 0 -- -- 79
2019-04-03 10:00:00 14.4 14 Sudoeste 23 Sudoeste 0 -- -- 87
2019-04-03 09:00:00 14 14 Sudoeste 22 Sudoeste 0 -- -- 93
2019-04-03 08:00:00 13.1 4 Sudoeste 8 Sudoeste 0 -- -- 94
2019-04-03 07:00:00 12.8 5 Oeste 9 Sudoeste 0 -- -- 94
2019-04-03 06:00:00 12.6 4 Oeste 8 Oeste 0 -- -- 93
2019-04-03 05:00:00 12.7 6 Sudoeste 12 Sudoeste 0 -- -- 94
2019-04-03 04:00:00 12.6 4 Sudoeste 10 Sur 0 -- -- 93
2019-04-03 03:00:00 12.8 7 Sur 9 Sur 0 -- -- 93
2019-04-03 02:00:00 12.9 4 Sur 6 Sudoeste 0 -- -- 92
2019-04-03 01:00:00 12.9 3 Sudoeste 14 Sudoeste 0 -- -- 90
2019-04-03 00:00:00 13.6 5 Sudoeste 13 Sudoeste 0 -- -- 91
2019-04-02 23:00:00 12.8 6 Sudoeste 10 Sudoeste 0 -- -- 90
2019-04-02 22:00:00 12.4 6 Sudoeste 10 Oeste 0 -- -- 86
2019-04-02 21:00:00 13.3 8 Oeste 17 Sudoeste 0 -- -- 85
2019-04-02 20:00:00 14.5 11 Sudoeste 23 Sudoeste 0 -- -- 81
2019-04-02 19:00:00 16.5 15 Sudoeste 25 Sudoeste 0 -- -- 71
2019-04-02 18:00:00 18 20 Sudoeste 30 Sudoeste 0 -- -- 64
2019-04-02 17:00:00 18.6 20 Sudoeste 29 Sudoeste 0 -- -- 59
2019-04-02 16:00:00 18.8 19 Sudoeste 31 Sudoeste 0 -- -- 61
2019-04-02 15:00:00 19.1 17 Sudoeste 31 Sudoeste 0 -- -- 58
2019-04-02 14:00:00 18.5 17 Sudoeste 31 Sudoeste 0 -- -- 60
2019-04-02 13:00:00 17.5 18 Sudoeste 32 Sudoeste 0 -- -- 62
2019-04-02 12:00:00 16.8 21 Sudoeste 30 Sudoeste 0 -- -- 67
2019-04-02 11:00:00 14.7 15 Oeste 23 Oeste 0 -- -- 76
2019-04-02 10:00:00 13.5 8 Sudoeste 12 Sudoeste 0 -- -- 85
2019-04-02 09:00:00 8.8 3 Sudoeste 5 Sudoeste 0 -- -- 94
2019-04-02 08:00:00 5.1 6 Oeste 9 Oeste 0 -- -- 94
2019-04-02 07:00:00 5 3 Oeste 6 Sudoeste 0 -- -- 92
2019-04-02 06:00:00 5.2 0 Calma 4 Norte 0 -- -- 92
2019-04-02 05:00:00 6.1 0 Calma 3 Noroeste 0 -- -- 90
2019-04-02 04:00:00 6.9 0 Calma 4 Oeste 0 -- -- 90
2019-04-02 03:00:00 8.1 0 Calma 5 Oeste 0 -- -- 89
2019-04-02 02:00:00 8.7 4 Oeste 6 Oeste 0 -- -- 89
2019-04-02 01:00:00 8.6 0 Calma -- -- 0 -- -- 87
2019-04-02 00:00:00 8.6 3 Oeste 6 Oeste 0 -- -- 84
2019-04-01 23:00:00 9.5 4 Noroeste 6 Noroeste 0 -- -- 80
2019-04-01 22:00:00 10.9 3 Noroeste 4 Noroeste 0 -- -- 73
2019-04-01 21:00:00 13.2 2 Este 6 Este 0 -- -- 64
2019-04-01 20:00:00 14.8 4 Este 15 Este 0 -- -- 60
2019-04-01 19:00:00 16.4 11 Este 16 Este 0 -- -- 50
2019-04-01 18:00:00 16.7 12 Sudoeste 17 Sudoeste 0 -- -- 61
2019-04-01 17:00:00 18.2 6 Sudeste 24 Este 0 -- -- 41
2019-04-01 16:00:00 19.1 10 Nordeste 22 Este 0 -- -- 43
2019-04-01 15:00:00 18.6 12 Nordeste 22 Nordeste 0 -- -- 51
2019-04-01 14:00:00 17 11 Nordeste 22 Nordeste 0 -- -- 57
2019-04-01 13:00:00 16.1 9 Nordeste 18 Nordeste 0 -- -- 66
2019-04-01 12:00:00 15.2 13 Nordeste 22 Nordeste 0 -- -- 66
2019-04-01 11:00:00 14.3 12 Nordeste 19 Nordeste 0 -- -- 74
2019-04-01 10:00:00 13.2 9 Nordeste 18 Nordeste 0 -- -- 86
2019-04-01 09:00:00 12.2 10 Nordeste 16 Norte 0 -- -- 87
2019-04-01 08:00:00 11.8 9 Norte 14 Norte 0 -- -- 89
2019-04-01 07:00:00 11.9 7 Norte 13 Norte 0 -- -- 90
2019-04-01 06:00:00 11.9 9 Nordeste 17 Nordeste 0 -- -- 92
2019-04-01 05:00:00 12.1 9 Nordeste 15 Nordeste 0 -- -- 92
2019-04-01 04:00:00 12.2 10 Nordeste 16 Norte 0 -- -- 92
2019-04-01 03:00:00 12.1 11 Nordeste 23 Norte 0 -- -- 93
2019-04-01 02:00:00 12.3 12 Nordeste 19 Nordeste 0 -- -- 93
2019-04-01 01:00:00 12.3 12 Nordeste 23 Nordeste 0 -- -- 94
2019-04-01 00:00:00 12.6 13 Nordeste 23 Nordeste 0.2 -- -- 94
2019-03-31 23:00:00 12.8 11 Este 28 Nordeste 0 -- -- 94
2019-03-31 22:00:00 13.1 17 Nordeste 26 Nordeste 0.4 -- -- 93
2019-03-31 21:00:00 13.4 13 Nordeste 21 Nordeste 0.2 -- -- 92
2019-03-31 20:00:00 13.7 9 Nordeste 18 Nordeste 0.4 -- -- 90
2019-03-31 19:00:00 14.7 8 Este 19 Este 0.4 -- -- 86
2019-03-31 18:00:00 15.7 9 Este 22 Este 0 -- -- 78
2019-03-31 17:00:00 16.2 13 Este 24 Este 0 -- -- 75
2019-03-31 16:00:00 16.2 13 Este 23 Sudeste 0 -- -- 74
2019-03-31 15:00:00 16.4 19 Este 29 Este 0 -- -- 70
2019-03-31 14:00:00 18.2 17 Este 32 Este 0 -- -- 64
2019-03-31 13:00:00 18.5 19 Este 30 Este 0 -- -- 59
2019-03-31 12:00:00 17.5 15 Nordeste 28 Nordeste 0 -- -- 66
2019-03-31 11:00:00 17.2 14 Nordeste 24 Nordeste 0 -- -- 67
2019-03-31 10:00:00 15.4 13 Nordeste 23 Nordeste 0 -- -- 73
2019-03-31 09:00:00 13 13 Nordeste 19 Nordeste 0 -- -- 92
2019-03-31 08:00:00 10.9 8 Nordeste 12 Nordeste 0 -- -- 92
2019-03-31 07:00:00 10.3 6 Nordeste 12 Nordeste 0 -- -- 91
2019-03-31 06:00:00 9.8 8 Nordeste 11 Nordeste 0 -- -- 92
2019-03-31 05:00:00 9 6 Norte 9 Nordeste 0 -- -- 90
2019-03-31 03:00:00 10.1 5 Norte 12 Norte 0 -- -- 88
2019-03-31 01:00:00 11.2 8 Norte 12 Nordeste 0 -- -- 88
2019-03-31 00:00:00 11.8 6 Nordeste 10 Nordeste 0 -- -- 88
2019-03-30 23:00:00 11.8 8 Nordeste 10 Nordeste 0 -- -- 88
2019-03-30 22:00:00 12.1 6 Nordeste 13 Nordeste 0 -- -- 85
2019-03-30 21:00:00 13.3 9 Nordeste 14 Nordeste 0 -- -- 82
2019-03-30 20:00:00 14.2 9 Nordeste 18 Este 0 -- -- 75
2019-03-30 19:00:00 15.1 12 Nordeste 22 Nordeste 0 -- -- 71
2019-03-30 18:00:00 16.4 16 Este 28 Este 0 -- -- 62
2019-03-30 17:00:00 17.9 14 Este 30 Este 0 -- -- 60
2019-03-30 16:00:00 19.2 18 Este 29 Este 0 -- -- 56
2019-03-30 15:00:00 18.9 14 Este 27 Este 0 -- -- 57
2019-03-30 14:00:00 18.5 12 Nordeste 28 Este 0 -- -- 56
2019-03-30 13:00:00 19 11 Este 29 Este 0 -- -- 51
2019-03-30 12:00:00 17.7 11 Nordeste 21 Nordeste 0 -- -- 55
2019-03-30 11:00:00 17 10 Este 33 Nordeste 0 -- -- 56
2019-03-30 10:00:00 14.7 11 Nordeste 20 Nordeste 0 -- -- 62
2019-03-30 09:00:00 14.3 9 Este 16 Este 0 -- -- 63
2019-03-30 08:00:00 10.1 2 Norte 5 Norte 0 -- -- 83
2019-03-30 07:00:00 7.6 0 Calma 10 Este 0 -- -- 83
2019-03-30 06:00:00 9 3 Norte 8 Sudeste 0 -- -- 82
2019-03-30 05:00:00 9.2 4 Noroeste 8 Noroeste 0 -- -- 83
2019-03-30 04:00:00 9.3 5 Sudeste 12 Sudeste 0 -- -- 80
2019-03-30 03:00:00 9.1 7 Noroeste 9 Norte 0 -- -- 86
2019-03-30 02:00:00 6.9 6 Noroeste 7 Norte 0 -- -- 88
2019-03-30 01:00:00 7.2 0 Calma 6 Norte 0 -- -- 85
2019-03-30 00:00:00 7.1 5 Norte 8 Norte 0 -- -- 87
2019-03-29 23:00:00 6.3 0 Calma 6 Sudeste 0 -- -- 83
2019-03-29 22:00:00 8.2 0 Calma 9 Nordeste 0 -- -- 78
2019-03-29 21:00:00 9.9 5 Nordeste 15 Nordeste 0 -- -- 74
2019-03-29 20:00:00 11.4 8 Nordeste 15 Este 0 -- -- 68
2019-03-29 19:00:00 13.6 12 Este 24 Nordeste 0 -- -- 60
2019-03-29 18:00:00 15.4 16 Nordeste 27 Nordeste 0 -- -- 53
2019-03-29 17:00:00 18 12 Este 26 Este 0 -- -- 39
2019-03-29 16:00:00 18 10 Nordeste 31 Sudeste 0 -- -- 35
2019-03-29 15:00:00 18.1 10 Este 23 Este 0 -- -- 37
2019-03-29 14:00:00 17.8 11 Nordeste 26 Este 0 -- -- 37
2019-03-29 13:00:00 17.7 15 Este 26 Este 0 -- -- 38
2019-03-29 12:00:00 17.7 15 Este 30 Este 0 -- -- 44
2019-03-29 11:00:00 17.2 17 Este 29 Nordeste 0 -- -- 45
2019-03-29 10:00:00 15.7 14 Este 23 Este 0 -- -- 58
2019-03-29 09:00:00 12.1 4 Este 8 Este 0 -- -- 70
2019-03-29 08:00:00 5.3 0 Calma 6 Sudoeste 0 -- -- 90
2019-03-29 07:00:00 1.6 5 Noroeste 6 Noroeste 0 -- -- 89
2019-03-29 06:00:00 1.1 4 Oeste 5 Sudoeste 0 -- -- 88
2019-03-29 05:00:00 1.3 3 Sudoeste 8 Noroeste 0 -- -- 86
2019-03-29 04:00:00 1.8 3 Oeste 6 Oeste 0 -- -- 86
2019-03-29 03:00:00 2.3 3 Oeste 6 Sudoeste 0 -- -- 85
2019-03-29 02:00:00 2.9 0 Calma 4 Este 0 -- -- 84
2019-03-29 01:00:00 3.6 3 Noroeste 8 Noroeste 0 -- -- 82
2019-03-29 00:00:00 4.7 2 Sudoeste 4 Noroeste 0 -- -- 81
2019-03-28 23:00:00 6 4 Noroeste 6 Noroeste 0 -- -- 80
2019-03-28 22:00:00 7.3 5 Noroeste 9 Noroeste 0 -- -- 78
2019-03-28 21:00:00 8.7 5 Noroeste 7 Norte 0 -- -- 72
2019-03-28 20:00:00 10.8 0 Calma 12 Este 0 -- -- 65
2019-03-28 19:00:00 13.7 8 Este 23 Este 0 -- -- 55
2019-03-28 18:00:00 15.8 13 Nordeste 27 Este 0 -- -- 46
2019-03-28 17:00:00 17.2 17 Este 28 Este 0 -- -- 43
2019-03-28 16:00:00 17.5 16 Nordeste 30 Este 0 -- -- 43
2019-03-28 15:00:00 18.3 16 Nordeste 36 Este 0 -- -- 43
2019-03-28 14:00:00 17.9 19 Nordeste 33 Este 0 -- -- 44
2019-03-28 13:00:00 17.4 20 Nordeste 41 Nordeste 0 -- -- 42
2019-03-28 12:00:00 17.3 17 Nordeste 33 Nordeste 0 -- -- 43
2019-03-28 11:00:00 16.9 17 Nordeste 31 Este 0 -- -- 42
2019-03-28 10:00:00 15.8 16 Nordeste 28 Nordeste 0 -- -- 46
2019-03-28 09:00:00 12.7 5 Este 10 Este 0 -- -- 66
2019-03-28 08:00:00 6.9 0 Calma 9 Noroeste 0 -- -- 91
2019-03-28 07:00:00 1.7 5 Noroeste 7 Noroeste 0 -- -- 88
2019-03-28 06:00:00 2.9 4 Sudoeste 10 Oeste 0 -- -- 87
2019-03-28 05:00:00 3.2 0 Calma 8 Oeste 0 -- -- 88
2019-03-28 04:00:00 2.3 3 Sur 7 Este 0 -- -- 84
2019-03-28 03:00:00 3.8 2 Este 12 Sudeste 0 -- -- 82
2019-03-28 02:00:00 4.1 9 Sudeste 13 Este 0 -- -- 80
2019-03-28 01:00:00 3.6 5 Sur 11 Sudeste 0 -- -- 73
2019-03-28 00:00:00 4.3 5 Oeste 10 Oeste 0 -- -- 75
2019-03-27 23:00:00 5.3 6 Oeste 9 Oeste 0 -- -- 78
2019-03-27 22:00:00 5.9 2 Sudoeste 5 Este 0 -- -- 78
2019-03-27 21:00:00 8.5 3 Este 12 Nordeste 0 -- -- 70
2019-03-27 20:00:00 10.6 10 Nordeste 25 Nordeste 0 -- -- 66
2019-03-27 19:00:00 12.9 12 Este 27 Nordeste 0 -- -- 55
2019-03-27 18:00:00 14.8 17 Nordeste 30 Nordeste 0 -- -- 41
2019-03-27 17:00:00 15.9 17 Nordeste 34 Nordeste 0 -- -- 40
2019-03-27 16:00:00 16.4 22 Nordeste 39 Nordeste 0 -- -- 37
2019-03-27 15:00:00 16.5 21 Nordeste 39 Nordeste 0 -- -- 41
2019-03-27 14:00:00 17.1 22 Nordeste 43 Nordeste 0 -- -- 39
2019-03-27 13:00:00 17.1 23 Nordeste -- -- -- -- -- 41
2019-03-27 12:00:00 -- -- -- -- -- -- -- -- --
2019-03-27 11:00:00 16.5 18 Nordeste 31 Nordeste 0 -- -- 47
2019-03-27 10:00:00 15.4 18 Nordeste 33 Nordeste 0 -- -- 47
2019-03-27 09:00:00 13.8 18 Norte 30 Norte 0 -- -- 57
2019-03-27 08:00:00 12.1 20 Nordeste 32 Nordeste 0 -- -- 61
2019-03-27 07:00:00 10.5 15 Nordeste 29 Norte 0 -- -- 63
2019-03-27 06:00:00 11.1 19 Nordeste 35 Norte 0 -- -- 60
2019-03-27 05:00:00 10.7 17 Nordeste 30 Norte 0 -- -- 65
2019-03-27 04:00:00 8.9 5 Este 25 Nordeste 0 -- -- 66
2019-03-27 03:00:00 3.6 3 Este 8 Nordeste 0 -- -- 82
2019-03-27 02:00:00 3.5 2 Este 4 Nordeste 0 -- -- 80
2019-03-27 01:00:00 3.7 3 Sur 9 Nordeste 0 -- -- 81
2019-03-27 00:00:00 3.4 0 Calma 6 Oeste 0 -- -- 82
2019-03-26 23:00:00 4.2 4 Sudoeste 6 Noroeste 0 -- -- 78
2019-03-26 22:00:00 5.2 5 Noroeste 7 Noroeste 0 -- -- 76
2019-03-26 21:00:00 6.3 3 Oeste 5 Sudoeste 0 -- -- 70
2019-03-26 20:00:00 9 3 Nordeste 21 Nordeste 0 -- -- 62
2019-03-26 19:00:00 11.5 13 Nordeste 36 Nordeste 0 -- -- 54
2019-03-26 18:00:00 12.7 24 Nordeste 44 Nordeste 0 -- -- 52
2019-03-26 17:00:00 14.2 22 Nordeste 49 Nordeste 0 -- -- 52
2019-03-26 16:00:00 13.8 31 Nordeste 53 Nordeste 0 -- -- 47
2019-03-26 15:00:00 14.1 31 Nordeste 57 Nordeste 0 -- -- 47
2019-03-26 14:00:00 14.6 32 Nordeste 46 Nordeste 0 -- -- 42
2019-03-26 13:00:00 15 25 Nordeste 54 Nordeste 0 -- -- 39
2019-03-26 12:00:00 14.9 33 Nordeste 54 Nordeste 0 -- -- 36
2019-03-26 11:00:00 15.1 28 Nordeste 54 Nordeste 0 -- -- 29
2019-03-26 10:00:00 14.5 28 Nordeste 48 Nordeste 0 -- -- 32
2019-03-26 09:00:00 14.1 18 Nordeste 36 Nordeste 0 -- -- 32
2019-03-26 08:00:00 12 17 Nordeste 34 Nordeste 0 -- -- 45
2019-03-26 07:00:00 9.4 12 Nordeste 20 Nordeste 0 -- -- 87
2019-03-26 06:00:00 5.9 6 Nordeste 10 Nordeste 0 -- -- 93
2019-03-26 05:00:00 5 7 Este 11 Este 0 -- -- 92
2019-03-26 04:00:00 4.8 0 Calma 8 Nordeste 0 -- -- 90
2019-03-26 03:00:00 5.6 0 Calma 6 Sudoeste 0 -- -- 90
2019-03-26 02:00:00 6 2 Sudoeste 7 Oeste 0 -- -- 88
2019-03-26 01:00:00 7 3 Oeste 8 Nordeste 0 -- -- 87
2019-03-26 00:00:00 7.7 2 Noroeste 9 Este 0 -- -- 85
2019-03-25 23:00:00 9.4 4 Nordeste 6 Norte 0 -- -- 86
2019-03-25 22:00:00 9.3 2 Noroeste 5 Noroeste 0 -- -- 82
2019-03-25 21:00:00 11.1 0 Calma 6 Noroeste 0 -- -- 77
2019-03-25 20:00:00 13.4 0 Calma 8 Nordeste 0 -- -- 70
2019-03-25 19:00:00 15.9 5 Nordeste 18 Este 0 -- -- 63
2019-03-25 18:00:00 19.7 10 Este 18 Este 0 -- -- 48
2019-03-25 17:00:00 19.9 6 Este 17 Este 0 -- -- 42
2019-03-25 16:00:00 20.4 10 Este 22 Este 0 -- -- 42
2019-03-25 15:00:00 20.4 11 Este 30 Nordeste 0 -- -- 43
2019-03-25 14:00:00 20.5 13 Este 30 Este 0 -- -- 42
2019-03-25 13:00:00 20.6 16 Este 37 Este 0 -- -- 43
2019-03-25 12:00:00 20.4 19 Este 33 Este 0 -- -- 42
2019-03-25 11:00:00 20.2 16 Este 37 Nordeste 0 -- -- 42
2019-03-25 10:00:00 18.4 21 Nordeste 35 Nordeste 0 -- -- 42
2019-03-25 09:00:00 13.4 0 Calma 4 Sur 0 -- -- 72
2019-03-25 08:00:00 6.9 3 Sur 4 Sudoeste 0 -- -- 92
2019-03-25 07:00:00 3.4 0 Calma 6 Noroeste 0 -- -- 90
2019-03-25 06:00:00 3.4 2 Noroeste 6 Noroeste 0 -- -- 90
2019-03-25 05:00:00 3.7 3 Oeste 8 Norte 0 -- -- 90
2019-03-25 04:00:00 4 3 Oeste 5 Noroeste 0 -- -- 90
2019-03-25 03:00:00 4.6 0 Calma 4 Norte 0 -- -- 88
2019-03-25 02:00:00 5.7 0 Calma 8 Sur 0 -- -- 89
2019-03-25 01:00:00 6.3 4 Oeste 5 Noroeste 0 -- -- 88
2019-03-25 00:00:00 7.1 0 Calma 6 Noroeste 0 -- -- 87
2019-03-24 23:00:00 8.2 4 Oeste 7 Oeste 0 -- -- 84
2019-03-24 22:00:00 9.2 4 Sudoeste 10 Sudoeste 0 -- -- 83
2019-03-24 21:00:00 10.9 4 Noroeste 8 Este 0 -- -- 74
2019-03-24 20:00:00 13.7 7 Este 9 Este 0 -- -- 66
2019-03-24 19:00:00 16.4 0 Calma 10 Sur 0 -- -- 64
2019-03-24 18:00:00 17.9 8 Sur 20 Sur 0 -- -- 60
2019-03-24 17:00:00 19.4 13 Sudoeste 19 Sudoeste 0 -- -- 53
2019-03-24 16:00:00 20.8 14 Sudoeste 25 Sur 0 -- -- 42
2019-03-24 15:00:00 21.3 18 Sudoeste 24 Sudoeste 0 -- -- 42
2019-03-24 14:00:00 21.6 15 Sur 23 Sur 0 -- -- 40
2019-03-24 13:00:00 21.5 9 Sudoeste 18 Sudoeste 0 -- -- 37
2019-03-24 12:00:00 20.4 12 Oeste 21 Sur 0 -- -- 36
2019-03-24 11:00:00 19.6 8 Sur 13 Sur 0 -- -- 46
2019-03-24 10:00:00 17.6 9 Sudoeste 16 Sudoeste 0 -- -- 50
2019-03-24 09:00:00 13.4 5 Sudoeste 8 Sudoeste 0 -- -- 73
2019-03-24 08:00:00 6.8 2 Sudoeste 5 Oeste 0 -- -- 92
2019-03-24 07:00:00 2.8 3 Oeste 5 Noroeste 0 -- -- 89
2019-03-24 06:00:00 2.9 4 Sudoeste 6 Sudoeste 0 -- -- 88
2019-03-24 05:00:00 3.8 3 Noroeste 6 Noroeste 0 -- -- 86
2019-03-24 04:00:00 4.7 2 Oeste 6 Este 0 -- -- 83
2019-03-24 03:00:00 5.7 5 Este 9 Nordeste 0 -- -- 80
2019-03-24 02:00:00 6.2 4 Nordeste 8 Nordeste 0 -- -- 85
2019-03-24 01:00:00 7.3 5 Oeste 7 Oeste 0 -- -- 81
2019-03-24 00:00:00 8.4 4 Oeste 8 Oeste 0 -- -- 79
2019-03-23 23:00:00 7.9 4 Oeste 8 Sudoeste 0 -- -- 78
2019-03-23 22:00:00 8.8 4 Sudoeste 6 Sudoeste 0 -- -- 71
2019-03-23 21:00:00 10.1 5 Oeste 7 Oeste 0 -- -- 66
2019-03-23 20:00:00 12.6 5 Noroeste 6 Noroeste 0 -- -- 55
2019-03-23 19:00:00 16.9 5 Este 12 Este 0 -- -- 39
2019-03-23 18:00:00 19.6 9 Este 17 Este 0 -- -- 33
2019-03-23 17:00:00 20.6 11 Este 18 Este 0 -- -- 34
2019-03-23 16:00:00 21.3 8 Este 19 Nordeste 0 -- -- 37
2019-03-23 15:00:00 21.4 9 Este 20 Este 0 -- -- 40
2019-03-23 14:00:00 21 11 Este 22 Este 0 -- -- 44
2019-03-23 13:00:00 20.4 11 Este 23 Este 0 -- -- 46
2019-03-23 12:00:00 20.1 10 Este 21 Este 0 -- -- 47
2019-03-23 11:00:00 18.6 10 Nordeste 18 Este 0 -- -- 53
2019-03-23 10:00:00 17.3 9 Este 15 Este 0 -- -- 62
2019-03-23 09:00:00 13.7 4 Nordeste 8 Este 0 -- -- 92
2019-03-23 08:00:00 8.8 0 Calma 5 Sudeste 0 -- -- 97
2019-03-23 07:00:00 6.4 2 Este 6 Este 0 -- -- 93
2019-03-23 06:00:00 6.3 3 Nordeste 5 Nordeste 0 -- -- 93
2019-03-23 05:00:00 7 3 Este 5 Este 0 -- -- 93
2019-03-23 04:00:00 6.8 2 Noroeste 6 Este 0 -- -- 93
2019-03-23 03:00:00 6.5 0 Calma 6 Norte 0 -- -- 91
2019-03-23 02:00:00 7.4 3 Norte 6 Nordeste 0 -- -- 91
2019-03-23 01:00:00 8.5 2 Este 5 Nordeste 0 -- -- 90
2019-03-23 00:00:00 9.7 4 Nordeste 7 Nordeste 0 -- -- 89
2019-03-22 23:00:00 10.1 0 Calma 8 Nordeste 0 -- -- 88
2019-03-22 22:00:00 11.2 5 Nordeste 13 Nordeste 0 -- -- 87
2019-03-22 21:00:00 12.1 11 Nordeste 19 Este 0 -- -- 85
2019-03-22 20:00:00 12.9 13 Nordeste 24 Nordeste 0 -- -- 82
2019-03-22 19:00:00 13.5 16 Nordeste 28 Nordeste 0 -- -- 78
2019-03-22 18:00:00 14.3 12 Nordeste 35 Nordeste 0 -- -- 73
2019-03-22 17:00:00 15.3 20 Nordeste 35 Nordeste 0 -- -- 72
2019-03-22 16:00:00 17 21 Nordeste 34 Nordeste 0 -- -- 59
2019-03-22 15:00:00 18.3 17 Nordeste 31 Nordeste 0 -- -- 56
2019-03-22 14:00:00 18.5 18 Nordeste 38 Nordeste 0 -- -- 55
2019-03-22 13:00:00 18.1 24 Nordeste 37 Nordeste 0 -- -- 56
2019-03-22 12:00:00 17.1 22 Nordeste 39 Nordeste 0 -- -- 62
2019-03-22 11:00:00 16.9 21 Nordeste 39 Nordeste 0 -- -- 65
2019-03-22 10:00:00 15.9 19 Nordeste 34 Nordeste 0 -- -- 68
2019-03-22 09:00:00 14.5 21 Nordeste 30 Nordeste 0 -- -- 71
2019-03-22 08:00:00 12.6 10 Nordeste 26 Nordeste 0 -- -- 78
2019-03-22 07:00:00 11.6 16 Nordeste 26 Nordeste 0 -- -- 78
2019-03-22 06:00:00 11.3 12 Nordeste 23 Nordeste 0 -- -- 78
2019-03-22 05:00:00 10 10 Nordeste 19 Nordeste 0 -- -- 83
2019-03-22 04:00:00 10 9 Nordeste 24 Nordeste 0 -- -- 83
2019-03-22 03:00:00 9.9 10 Nordeste 22 Nordeste 0 -- -- 82
2019-03-22 02:00:00 10.1 11 Nordeste 19 Este 0 -- -- 82
2019-03-22 01:00:00 10.3 6 Nordeste 22 Nordeste 0 -- -- 79
2019-03-22 00:00:00 10.8 14 Nordeste 24 Nordeste 0 -- -- 78
2019-03-21 23:00:00 10.8 13 Nordeste 27 Nordeste 0 -- -- 76
2019-03-21 22:00:00 11.2 14 Nordeste 30 Nordeste 0 -- -- 75
2019-03-21 21:00:00 10.9 15 Nordeste 34 Nordeste 0 -- -- 74
2019-03-21 20:00:00 11 15 Nordeste 30 Nordeste 0 -- -- 71
2019-03-21 19:00:00 11.4 17 Nordeste 39 Nordeste 0 -- -- 68
2019-03-21 18:00:00 12.6 24 Nordeste 47 Nordeste 0 -- -- 65
2019-03-21 17:00:00 12.9 28 Nordeste 49 Nordeste 0 -- -- 63
2019-03-21 16:00:00 14 26 Nordeste 46 Nordeste 0 -- -- 62
2019-03-21 15:00:00 13.6 27 Nordeste 45 Nordeste 0 -- -- 61
2019-03-21 14:00:00 13.7 27 Nordeste 44 Nordeste 0 -- -- 61
2019-03-21 13:00:00 15.3 27 Nordeste 46 Nordeste 0 -- -- 55
2019-03-21 12:00:00 14.8 26 Nordeste 44 Nordeste 0 -- -- 59
2019-03-21 11:00:00 13.3 27 Nordeste 45 Nordeste 0 -- -- 60
2019-03-21 10:00:00 12.5 28 Nordeste 42 Nordeste 0 -- -- 68
2019-03-21 09:00:00 12.6 24 Nordeste 45 Nordeste 0 -- -- 61
2019-03-21 08:00:00 10.8 20 Nordeste 35 Nordeste 0 -- -- 73
2019-03-21 07:00:00 9.5 17 Nordeste 28 Nordeste 0 -- -- 69
2019-03-21 06:00:00 9.7 15 Nordeste 27 Nordeste 0 -- -- 64
2019-03-21 05:00:00 9.8 15 Nordeste 33 Nordeste 0 -- -- 65
2019-03-21 04:00:00 9.9 16 Nordeste 30 Norte 0 -- -- 66
2019-03-21 03:00:00 9.2 14 Nordeste 26 Norte 0 -- -- 70
2019-03-21 02:00:00 8.5 13 Nordeste 20 Nordeste 0 -- -- 76
2019-03-21 01:00:00 8.3 8 Nordeste 15 Nordeste 0 -- -- 79
2019-03-21 00:00:00 8.9 10 Nordeste 22 Nordeste 0 -- -- 78
2019-03-20 23:00:00 8.6 12 Nordeste 22 Nordeste 0 -- -- 81
2019-03-20 22:00:00 8.8 11 Nordeste 24 Nordeste 0 -- -- 76
2019-03-20 21:00:00 9.1 14 Nordeste 29 Nordeste 0 -- -- 76
2019-03-20 20:00:00 9.5 15 Nordeste 30 Nordeste 0 -- -- 74
2019-03-20 19:00:00 10.3 19 Nordeste 44 Nordeste 0 -- -- 72
2019-03-20 18:00:00 11.5 25 Nordeste 43 Nordeste 0 -- -- 70
2019-03-20 17:00:00 11.2 21 Nordeste 35 Norte 0 -- -- 77
2019-03-20 16:00:00 9.1 5 Noroeste 13 Este 0.4 -- -- 90
2019-03-20 15:00:00 8 8 Nordeste 32 Este 2.2 -- -- 88
2019-03-20 14:00:00 9.7 20 Nordeste 53 Nordeste 0.2 -- -- 82
2019-03-20 13:00:00 12 33 Nordeste 51 Nordeste 0 -- -- 67
2019-03-20 12:00:00 12.4 21 Nordeste 51 Nordeste 0 -- -- 69
2019-03-20 11:00:00 13.7 25 Nordeste 40 Nordeste 0 -- -- 56
2019-03-20 10:00:00 11.5 18 Nordeste 40 Nordeste 0 -- -- 60
2019-03-20 09:00:00 11.9 27 Nordeste 40 Nordeste 0 -- -- 57
2019-03-20 08:00:00 10.9 19 Nordeste 31 Nordeste 0 -- -- 63
2019-03-20 07:00:00 10 19 Nordeste 33 Nordeste 0 -- -- 68
2019-03-20 06:00:00 10.1 22 Nordeste 33 Nordeste 0 -- -- 72
2019-03-20 05:00:00 9.9 14 Nordeste 24 Nordeste 0 -- -- 78
2019-03-20 04:00:00 9.1 15 Nordeste 25 Nordeste 0 -- -- 77
2019-03-20 03:00:00 9.4 13 Nordeste 23 Nordeste 0 -- -- 74
2019-03-20 02:00:00 9.7 14 Nordeste 28 Nordeste 0 -- -- 74
2019-03-20 01:00:00 10.1 17 Nordeste 28 Nordeste 0 -- -- 76
2019-03-20 00:00:00 10.2 17 Nordeste 27 Nordeste 0 -- -- 74
2019-03-19 23:00:00 9.9 14 Nordeste 33 Nordeste 0 -- -- 73
2019-03-19 22:00:00 10.6 15 Nordeste 30 Nordeste 0 -- -- 73
2019-03-19 21:00:00 9.5 9 Nordeste 19 Norte 0 -- -- 73
2019-03-19 20:00:00 9.4 8 Nordeste 18 Nordeste 0 -- -- 72
2019-03-19 19:00:00 10.2 10 Nordeste 20 Nordeste 0 -- -- 68
2019-03-19 18:00:00 11.2 13 Nordeste 33 Nordeste 0 -- -- 66
2019-03-19 17:00:00 11.8 21 Nordeste 31 Nordeste 0 -- -- 63
2019-03-19 16:00:00 11.8 18 Nordeste 32 Nordeste 0 -- -- 65
2019-03-19 15:00:00 12 18 Nordeste 30 Nordeste 0 -- -- 68
2019-03-19 14:00:00 11.6 10 Nordeste 25 Nordeste 0 -- -- 75
2019-03-19 13:00:00 10.5 4 Norte 8 Norte 0 -- -- 80
2019-03-19 12:00:00 8.8 3 Sur 11 Nordeste 0.2 -- -- 91
2019-03-19 11:00:00 8.1 6 Este 10 Este 2 -- -- 92
2019-03-19 10:00:00 8 0 Calma 11 Noroeste 3.8 -- -- 91
2019-03-19 09:00:00 8.3 10 Noroeste 19 Noroeste 1.2 -- -- 91
2019-03-19 08:00:00 8.2 13 Oeste 19 Oeste 0 -- -- 94
2019-03-19 07:00:00 7.7 6 Sudoeste 10 Sudoeste 0 -- -- 94
2019-03-19 06:00:00 6.6 6 Oeste 8 Oeste 0 -- -- 95
2019-03-19 05:00:00 5.3 3 Oeste 8 Oeste 0 -- -- 95
2019-03-19 04:00:00 4.9 7 Oeste 9 Sudoeste 0 -- -- 94
2019-03-19 03:00:00 5.2 2 Oeste 6 Sudoeste 0 -- -- 94
2019-03-19 02:00:00 6.2 4 Sudoeste 7 Sudoeste 0 -- -- 93
2019-03-19 01:00:00 5.8 3 Oeste 4 Oeste 0 -- -- 94
2019-03-19 00:00:00 4.2 3 Oeste 5 Noroeste 0 -- -- 93